sensor_id;sensor_type;location;lat;lon;timestamp;pressure;altitude;pressure_sealevel;temperature;humidity
29045;BME280;16133;49.486;12.176;2024-03-02T00:01:39;96386.53;;;5.48;100.00
29045;BME280;16133;49.486;12.176;2024-03-02T00:04:05;96391.81;;;5.48;100.00
29045;BME280;16133;49.486;12.176;2024-03-02T00:06:31;96392.63;;;5.49;100.00
29045;BME280;16133;49.486;12.176;2024-03-02T00:08:58;96388.38;;;5.48;100.00
29045;BME280;16133;49.486;12.176;2024-03-02T00:11:24;96393.44;;;5.49;100.00
29045;BME280;16133;49.486;12.176;2024-03-02T00:13:52;96396.28;;;5.48;100.00
29045;BME280;16133;49.486;12.176;2024-03-02T00:16:18;96394.63;;;5.47;100.00
29045;BME280;16133;49.486;12.176;2024-03-02T00:18:43;96396.59;;;5.45;100.00
29045;BME280;16133;49.486;12.176;2024-03-02T00:21:09;96392.16;;;5.45;100.00
29045;BME280;16133;49.486;12.176;2024-03-02T00:23:35;96392.16;;;5.45;100.00
29045;BME280;16133;49.486;12.176;2024-03-02T00:26:01;96388.69;;;5.45;100.00
29045;BME280;16133;49.486;12.176;2024-03-02T00:28:36;96396.59;;;5.45;100.00
29045;BME280;16133;49.486;12.176;2024-03-02T00:31:06;96383.44;;;5.45;100.00
29045;BME280;16133;49.486;12.176;2024-03-02T00:33:34;96392.34;;;5.44;100.00
29045;BME280;16133;49.486;12.176;2024-03-02T00:36:00;96389.72;;;5.44;100.00
29045;BME280;16133;49.486;12.176;2024-03-02T00:38:27;96389.72;;;5.44;100.00
29045;BME280;16133;49.486;12.176;2024-03-02T00:40:53;96387.09;;;5.44;100.00
29045;BME280;16133;49.486;12.176;2024-03-02T00:46:03;96380.53;;;5.40;100.00
29045;BME280;16133;49.486;12.176;2024-03-02T00:48:29;96389.25;;;5.40;100.00
29045;BME280;16133;49.486;12.176;2024-03-02T00:50:56;96377.91;;;5.40;100.00
29045;BME280;16133;49.486;12.176;2024-03-02T00:53:23;96383.47;;;5.37;100.00
29045;BME280;16133;49.486;12.176;2024-03-02T00:55:50;96381.69;;;5.37;100.00
29045;BME280;16133;49.486;12.176;2024-03-02T00:58:16;96379.25;;;5.36;100.00
29045;BME280;16133;49.486;12.176;2024-03-02T01:00:41;96378.56;;;5.34;100.00
29045;BME280;16133;49.486;12.176;2024-03-02T01:03:06;96380.38;;;5.33;100.00
29045;BME280;16133;49.486;12.176;2024-03-02T01:05:33;96387.47;;;5.33;100.00
29045;BME280;16133;49.486;12.176;2024-03-02T01:07:58;96390.09;;;5.33;100.00
29045;BME280;16133;49.486;12.176;2024-03-02T01:10:23;96393.38;;;5.35;100.00
29045;BME280;16133;49.486;12.176;2024-03-02T01:12:51;96380.09;;;5.28;100.00
29045;BME280;16133;49.486;12.176;2024-03-02T01:15:16;96390.09;;;5.33;100.00
29045;BME280;16133;49.486;12.176;2024-03-02T01:17:41;96382.22;;;5.33;100.00
29045;BME280;16133;49.486;12.176;2024-03-02T01:20:08;96386.47;;;5.34;100.00
29045;BME280;16133;49.486;12.176;2024-03-02T01:22:34;96383.84;;;5.34;100.00
29045;BME280;16133;49.486;12.176;2024-03-02T01:25:01;96387.13;;;5.36;100.00
29045;BME280;16133;49.486;12.176;2024-03-02T01:27:26;96382.84;;;5.35;100.00
29045;BME280;16133;49.486;12.176;2024-03-02T01:29:52;96380.22;;;5.35;100.00
29045;BME280;16133;49.486;12.176;2024-03-02T01:32:17;96377.59;;;5.35;100.00
29045;BME280;16133;49.486;12.176;2024-03-02T01:34:43;96381.19;;;5.34;100.00
29045;BME280;16133;49.486;12.176;2024-03-02T01:37:08;96379.59;;;5.33;100.00
29045;BME280;16133;49.486;12.176;2024-03-02T01:39:35;96380.56;;;5.32;100.00
29045;BME280;16133;49.486;12.176;2024-03-02T01:42:00;96368.41;;;5.30;100.00
29045;BME280;16133;49.486;12.176;2024-03-02T01:44:26;96376.28;;;5.30;100.00
29045;BME280;16133;49.486;12.176;2024-03-02T01:46:51;96385.34;;;5.28;100.00
29045;BME280;16133;49.486;12.176;2024-03-02T01:49:16;96378.44;;;5.27;100.00
29045;BME280;16133;49.486;12.176;2024-03-02T01:51:42;96372.38;;;5.26;100.00
29045;BME280;16133;49.486;12.176;2024-03-02T01:54:07;96374.38;;;5.24;100.00
29045;BME280;16133;49.486;12.176;2024-03-02T01:56:33;96372.72;;;5.23;100.00
29045;BME280;16133;49.486;12.176;2024-03-02T01:58:58;96370.25;;;5.22;100.00
29045;BME280;16133;49.486;12.176;2024-03-02T02:01:24;96376.53;;;5.21;100.00
29045;BME280;16133;49.486;12.176;2024-03-02T02:03:49;96365.69;;;5.16;100.00
29045;BME280;16133;49.486;12.176;2024-03-02T02:06:15;96366.16;;;5.19;100.00
29045;BME280;16133;49.486;12.176;2024-03-02T02:08:40;96365.34;;;5.19;100.00
29045;BME280;16133;49.486;12.176;2024-03-02T02:11:06;96373.88;;;5.21;100.00
29045;BME280;16133;49.486;12.176;2024-03-02T02:13:31;96366.78;;;5.21;100.00
29045;BME280;16133;49.486;12.176;2024-03-02T02:16:05;96358.75;;;5.23;100.00
29045;BME280;16133;49.486;12.176;2024-03-02T02:18:30;96363.84;;;5.24;100.00
29045;BME280;16133;49.486;12.176;2024-03-02T02:20:55;96358.41;;;5.26;100.00
29045;BME280;16133;49.486;12.176;2024-03-02T02:23:21;96351.31;;;5.26;100.00
29045;BME280;16133;49.486;12.176;2024-03-02T02:25:46;96339.72;;;5.21;100.00
29045;BME280;16133;49.486;12.176;2024-03-02T02:28:11;96345.09;;;5.27;100.00
29045;BME280;16133;49.486;12.176;2024-03-02T02:30:37;96346.72;;;5.28;100.00
29045;BME280;16133;49.486;12.176;2024-03-02T02:33:02;96349.00;;;5.32;100.00
29045;BME280;16133;49.486;12.176;2024-03-02T02:35:28;96353.28;;;5.33;100.00
29045;BME280;16133;49.486;12.176;2024-03-02T02:37:55;96353.91;;;5.35;100.00
29045;BME280;16133;49.486;12.176;2024-03-02T02:40:20;96356.38;;;5.36;100.00
29045;BME280;16133;49.486;12.176;2024-03-02T02:42:46;96352.41;;;5.40;100.00
29045;BME280;16133;49.486;12.176;2024-03-02T02:45:12;96347.94;;;5.41;100.00
29045;BME280;16133;49.486;12.176;2024-03-02T02:47:40;96345.00;;;5.44;100.00
29045;BME280;16133;49.486;12.176;2024-03-02T02:50:09;96357.13;;;5.45;100.00
29045;BME280;16133;49.486;12.176;2024-03-02T02:52:35;96355.34;;;5.45;100.00
29045;BME280;16133;49.486;12.176;2024-03-02T02:55:05;96347.28;;;5.47;100.00
29045;BME280;16133;49.486;12.176;2024-03-02T02:57:34;96343.97;;;5.45;100.00
29045;BME280;16133;49.486;12.176;2024-03-02T03:00:12;96343.81;;;5.46;100.00
29045;BME280;16133;49.486;12.176;2024-03-02T03:02:41;96344.66;;;5.47;100.00
29045;BME280;16133;49.486;12.176;2024-03-02T03:05:08;96342.00;;;5.47;100.00
29045;BME280;16133;49.486;12.176;2024-03-02T03:07:34;96347.28;;;5.47;100.00
29045;BME280;16133;49.486;12.176;2024-03-02T03:10:00;96348.94;;;5.48;100.00
29045;BME280;16133;49.486;12.176;2024-03-02T03:12:25;96342.00;;;5.47;100.00
29045;BME280;16133;49.486;12.176;2024-03-02T03:14:51;96346.28;;;5.48;100.00
29045;BME280;16133;49.486;12.176;2024-03-02T03:17:16;96349.72;;;5.48;100.00
29045;BME280;16133;49.486;12.176;2024-03-02T03:19:42;96351.56;;;5.48;100.00
29045;BME280;16133;49.486;12.176;2024-03-02T03:22:08;96359.44;;;5.48;100.00
29045;BME280;16133;49.486;12.176;2024-03-02T03:24:33;96362.72;;;5.50;100.00
29045;BME280;16133;49.486;12.176;2024-03-02T03:26:58;96358.44;;;5.49;100.00
29045;BME280;16133;49.486;12.176;2024-03-02T03:29:24;96361.06;;;5.49;100.00
29045;BME280;16133;49.486;12.176;2024-03-02T03:31:49;96368.94;;;5.49;100.00
29045;BME280;16133;49.486;12.176;2024-03-02T03:34:14;96366.16;;;5.50;100.00
29045;BME280;16133;49.486;12.176;2024-03-02T03:36:41;96363.53;;;5.50;100.00
29045;BME280;16133;49.486;12.176;2024-03-02T03:39:06;96360.44;;;5.47;100.00
29045;BME280;16133;49.486;12.176;2024-03-02T03:41:32;96366.16;;;5.50;100.00
29045;BME280;16133;49.486;12.176;2024-03-02T03:43:57;96374.06;;;5.50;100.00
29045;BME280;16133;49.486;12.176;2024-03-02T03:46:23;96367.97;;;5.50;100.00
29045;BME280;16133;49.486;12.176;2024-03-02T03:48:48;96373.22;;;5.50;100.00
29045;BME280;16133;49.486;12.176;2024-03-02T03:51:13;96369.63;;;5.51;100.00
29045;BME280;16133;49.486;12.176;2024-03-02T03:53:39;96364.34;;;5.51;100.00
29045;BME280;16133;49.486;12.176;2024-03-02T03:56:04;96368.78;;;5.50;100.00
29045;BME280;16133;49.486;12.176;2024-03-02T03:58:30;96363.38;;;5.52;100.00
29045;BME280;16133;49.486;12.176;2024-03-02T04:00:55;96372.88;;;5.53;100.00
29045;BME280;16133;49.486;12.176;2024-03-02T04:03:21;96364.00;;;5.54;100.00
29045;BME280;16133;49.486;12.176;2024-03-02T04:05:46;96367.63;;;5.53;100.00
29045;BME280;16133;49.486;12.176;2024-03-02T04:08:11;96378.97;;;5.53;100.00
29045;BME280;16133;49.486;12.176;2024-03-02T04:10:37;96378.97;;;5.53;100.00
29045;BME280;16133;49.486;12.176;2024-03-02T04:13:03;96382.56;;;5.52;100.00
29045;BME280;16133;49.486;12.176;2024-03-02T04:15:28;96378.13;;;5.53;100.00
29045;BME280;16133;49.486;12.176;2024-03-02T04:17:53;96374.69;;;5.52;100.00
29045;BME280;16133;49.486;12.176;2024-03-02T04:20:20;96380.78;;;5.53;100.00
29045;BME280;16133;49.486;12.176;2024-03-02T04:22:45;96380.59;;;5.54;100.00
29045;BME280;16133;49.486;12.176;2024-03-02T04:25:11;96377.16;;;5.54;100.00
29045;BME280;16133;49.486;12.176;2024-03-02T04:27:36;96383.25;;;5.54;100.00
29045;BME280;16133;49.486;12.176;2024-03-02T04:30:02;96387.53;;;5.55;100.00
29045;BME280;16133;49.486;12.176;2024-03-02T04:32:28;96388.31;;;5.56;100.00
29045;BME280;16133;49.486;12.176;2024-03-02T04:34:54;96388.31;;;5.56;100.00
29045;BME280;16133;49.486;12.176;2024-03-02T04:37:19;96385.69;;;5.56;100.00
29045;BME280;16133;49.486;12.176;2024-03-02T04:39:45;96379.44;;;5.57;100.00
29045;BME280;16133;49.486;12.176;2024-03-02T04:42:10;96382.06;;;5.57;100.00
29045;BME280;16133;49.486;12.176;2024-03-02T04:44:36;96390.78;;;5.57;100.00
29045;BME280;16133;49.486;12.176;2024-03-02T04:47:03;96387.31;;;5.57;100.00
29045;BME280;16133;49.486;12.176;2024-03-02T04:49:28;96389.13;;;5.56;100.00
29045;BME280;16133;49.486;12.176;2024-03-02T04:51:53;96386.69;;;5.55;100.00
29045;BME280;16133;49.486;12.176;2024-03-02T04:54:19;96394.59;;;5.55;100.00
29045;BME280;16133;49.486;12.176;2024-03-02T04:56:45;96399.66;;;5.56;100.00
29045;BME280;16133;49.486;12.176;2024-03-02T04:59:14;96400.47;;;5.57;100.00
29045;BME280;16133;49.486;12.176;2024-03-02T05:01:39;96395.41;;;5.55;100.00
29045;BME280;16133;49.486;12.176;2024-03-02T05:04:05;96401.31;;;5.57;100.00
29045;BME280;16133;49.486;12.176;2024-03-02T05:06:30;96406.72;;;5.56;100.00
29045;BME280;16133;49.486;12.176;2024-03-02T05:08:55;96404.09;;;5.56;100.00
29045;BME280;16133;49.486;12.176;2024-03-02T05:11:21;96406.72;;;5.56;100.00
29045;BME280;16133;49.486;12.176;2024-03-02T05:14:02;96404.09;;;5.56;100.00
29045;BME280;16133;49.486;12.176;2024-03-02T05:16:27;96401.47;;;5.56;100.00
29045;BME280;16133;49.486;12.176;2024-03-02T05:18:53;96398.84;;;5.56;100.00
29045;BME280;16133;49.486;12.176;2024-03-02T05:21:18;96411.19;;;5.55;100.00
29045;BME280;16133;49.486;12.176;2024-03-02T05:23:43;96406.72;;;5.56;100.00
29045;BME280;16133;49.486;12.176;2024-03-02T05:26:09;96409.34;;;5.56;100.00
29045;BME280;16133;49.486;12.176;2024-03-02T05:28:38;96409.34;;;5.56;100.00
29045;BME280;16133;49.486;12.176;2024-03-02T05:31:03;96408.56;;;5.55;100.00
29045;BME280;16133;49.486;12.176;2024-03-02T05:33:28;96412.00;;;5.56;100.00
29045;BME280;16133;49.486;12.176;2024-03-02T05:35:56;96413.00;;;5.55;100.00
29045;BME280;16133;49.486;12.176;2024-03-02T05:38:21;96410.38;;;5.55;100.00
29045;BME280;16133;49.486;12.176;2024-03-02T05:40:47;96411.34;;;5.54;100.00
29045;BME280;16133;49.486;12.176;2024-03-02T05:43:13;96414.00;;;5.54;100.00
29045;BME280;16133;49.486;12.176;2024-03-02T05:45:38;96412.34;;;5.53;100.00
29045;BME280;16133;49.486;12.176;2024-03-02T05:48:06;96416.00;;;5.52;100.00
29045;BME280;16133;49.486;12.176;2024-03-02T05:50:32;96416.78;;;5.52;100.00
29045;BME280;16133;49.486;12.176;2024-03-02T05:52:58;96423.69;;;5.53;100.00
29045;BME280;16133;49.486;12.176;2024-03-02T05:55:24;96419.09;;;5.55;100.00
29045;BME280;16133;49.486;12.176;2024-03-02T05:57:49;96423.53;;;5.55;100.00
29045;BME280;16133;49.486;12.176;2024-03-02T06:00:28;96421.53;;;5.57;100.00
29045;BME280;16133;49.486;12.176;2024-03-02T06:02:53;96421.38;;;5.58;100.00
29045;BME280;16133;49.486;12.176;2024-03-02T06:05:19;96423.66;;;5.61;100.00
29045;BME280;16133;49.486;12.176;2024-03-02T06:07:44;96425.31;;;5.62;100.00
29045;BME280;16133;49.486;12.176;2024-03-02T06:10:10;96429.38;;;5.65;100.00
29045;BME280;16133;49.486;12.176;2024-03-02T06:12:36;96428.41;;;5.66;100.00
29045;BME280;16133;49.486;12.176;2024-03-02T06:15:01;96429.69;;;5.70;100.00
29045;BME280;16133;49.486;12.176;2024-03-02T06:17:27;96429.34;;;5.73;100.00
29045;BME280;16133;49.486;12.176;2024-03-02T06:19:52;96430.81;;;5.75;100.00
29045;BME280;16133;49.486;12.176;2024-03-02T06:22:18;96426.00;;;5.79;100.00
29045;BME280;16133;49.486;12.176;2024-03-02T06:24:44;96431.94;;;5.81;100.00
29045;BME280;16133;49.486;12.176;2024-03-02T06:27:09;96433.22;;;5.85;100.00
29045;BME280;16133;49.486;12.176;2024-03-02T06:29:35;96429.09;;;5.91;100.00
29045;BME280;16133;49.486;12.176;2024-03-02T06:32:00;96426.28;;;5.92;100.00
29045;BME280;16133;49.486;12.176;2024-03-02T06:34:26;96434.16;;;6.00;100.00
29045;BME280;16133;49.486;12.176;2024-03-02T06:36:51;96435.91;;;6.08;100.00
29045;BME280;16133;49.486;12.176;2024-03-02T06:39:17;96435.66;;;6.17;100.00
29045;BME280;16133;49.486;12.176;2024-03-02T06:41:42;96437.88;;;6.29;100.00
29045;BME280;16133;49.486;12.176;2024-03-02T06:44:08;96441.72;;;6.41;100.00
29045;BME280;16133;49.486;12.176;2024-03-02T06:46:33;96442.31;;;6.51;100.00
29045;BME280;16133;49.486;12.176;2024-03-02T06:48:59;96446.34;;;6.61;100.00
29045;BME280;16133;49.486;12.176;2024-03-02T06:51:24;96445.44;;;6.69;100.00
29045;BME280;16133;49.486;12.176;2024-03-02T06:53:49;96445.75;;;6.74;100.00
29045;BME280;16133;49.486;12.176;2024-03-02T06:56:15;96447.56;;;6.73;100.00
29045;BME280;16133;49.486;12.176;2024-03-02T06:58:40;96456.09;;;6.76;100.00
29045;BME280;16133;49.486;12.176;2024-03-02T07:01:05;96454.94;;;6.78;100.00
29045;BME280;16133;49.486;12.176;2024-03-02T07:03:31;96455.84;;;6.85;100.00
29045;BME280;16133;49.486;12.176;2024-03-02T07:05:57;96453.13;;;6.93;100.00
29045;BME280;16133;49.486;12.176;2024-03-02T07:08:23;96454.03;;;7.00;100.00
29045;BME280;16133;49.486;12.176;2024-03-02T07:10:48;96452.31;;;7.07;100.00
29045;BME280;16133;49.486;12.176;2024-03-02T07:13:14;96459.50;;;7.13;100.00
29045;BME280;16133;49.486;12.176;2024-03-02T07:15:39;96453.88;;;7.16;100.00
29045;BME280;16133;49.486;12.176;2024-03-02T07:18:11;96460.44;;;7.20;100.00
29045;BME280;16133;49.486;12.176;2024-03-02T07:20:36;96458.03;;;7.26;100.00
29045;BME280;16133;49.486;12.176;2024-03-02T07:23:04;96457.97;;;7.34;100.00
29045;BME280;16133;49.486;12.176;2024-03-02T07:25:29;96464.50;;;7.38;100.00
29045;BME280;16133;49.486;12.176;2024-03-02T07:27:55;96472.72;;;7.43;100.00
29045;BME280;16133;49.486;12.176;2024-03-02T07:30:20;96464.59;;;7.44;100.00
29045;BME280;16133;49.486;12.176;2024-03-02T07:32:46;96469.53;;;7.47;100.00
29045;BME280;16133;49.486;12.176;2024-03-02T07:35:13;96478.59;;;7.59;100.00
29045;BME280;16133;49.486;12.176;2024-03-02T07:37:39;96474.84;;;7.68;100.00
29045;BME280;16133;49.486;12.176;2024-03-02T07:40:05;96480.22;;;7.75;100.00
29045;BME280;16133;49.486;12.176;2024-03-02T07:42:30;96484.13;;;7.79;100.00
29045;BME280;16133;49.486;12.176;2024-03-02T07:44:56;96481.75;;;7.84;100.00
29045;BME280;16133;49.486;12.176;2024-03-02T07:47:21;96488.38;;;7.95;100.00
29045;BME280;16133;49.486;12.176;2024-03-02T07:49:46;96485.69;;;8.09;100.00
29045;BME280;16133;49.486;12.176;2024-03-02T07:52:12;96483.66;;;8.26;100.00
29045;BME280;16133;49.486;12.176;2024-03-02T07:54:40;96484.25;;;8.43;100.00
29045;BME280;16133;49.486;12.176;2024-03-02T07:57:05;96491.19;;;8.65;100.00
29045;BME280;16133;49.486;12.176;2024-03-02T07:59:34;96486.50;;;8.88;100.00
29045;BME280;16133;49.486;12.176;2024-03-02T08:01:59;96494.00;;;9.12;100.00
29045;BME280;16133;49.486;12.176;2024-03-02T08:04:25;96496.31;;;9.22;100.00
29045;BME280;16133;49.486;12.176;2024-03-02T08:06:51;96499.22;;;9.27;100.00
29045;BME280;16133;49.486;12.176;2024-03-02T08:09:16;96505.34;;;9.34;100.00
29045;BME280;16133;49.486;12.176;2024-03-02T08:11:42;96505.81;;;9.44;100.00
29045;BME280;16133;49.486;12.176;2024-03-02T08:14:07;96498.94;;;9.50;100.00
29045;BME280;16133;49.486;12.176;2024-03-02T08:16:32;96507.72;;;9.57;100.00
29045;BME280;16133;49.486;12.176;2024-03-02T08:18:58;96510.78;;;9.54;100.00
29045;BME280;16133;49.486;12.176;2024-03-02T08:21:24;96490.28;;;9.35;100.00
29045;BME280;16133;49.486;12.176;2024-03-02T08:23:50;96506.59;;;9.38;100.00
29045;BME280;16133;49.486;12.176;2024-03-02T08:26:15;96507.75;;;9.29;100.00
29045;BME280;16133;49.486;12.176;2024-03-02T08:28:41;96503.81;;;9.19;100.00
29045;BME280;16133;49.486;12.176;2024-03-02T08:31:07;96508.88;;;9.13;100.00
29045;BME280;16133;49.486;12.176;2024-03-02T08:33:32;96508.03;;;9.13;100.00
29045;BME280;16133;49.486;12.176;2024-03-02T08:35:58;96509.50;;;9.16;100.00
29045;BME280;16133;49.486;12.176;2024-03-02T08:38:24;96507.06;;;9.21;100.00
29045;BME280;16133;49.486;12.176;2024-03-02T08:40:50;96509.59;;;9.29;100.00
29045;BME280;16133;49.486;12.176;2024-03-02T08:43:15;96507.38;;;9.32;100.00
29045;BME280;16133;49.486;12.176;2024-03-02T08:45:41;96515.59;;;9.44;100.00
29045;BME280;16133;49.486;12.176;2024-03-02T08:48:09;96512.03;;;9.58;100.00
29045;BME280;16133;49.486;12.176;2024-03-02T08:50:35;96514.94;;;9.70;100.00
29045;BME280;16133;49.486;12.176;2024-03-02T08:53:05;96499.84;;;9.70;100.00
29045;BME280;16133;49.486;12.176;2024-03-02T08:55:30;96514.59;;;9.86;100.00
29045;BME280;16133;49.486;12.176;2024-03-02T08:57:56;96516.66;;;9.90;100.00
29045;BME280;16133;49.486;12.176;2024-03-02T09:00:22;96515.09;;;10.02;100.00
29045;BME280;16133;49.486;12.176;2024-03-02T09:02:48;96514.69;;;10.12;100.00
29045;BME280;16133;49.486;12.176;2024-03-02T09:05:13;96511.97;;;10.27;100.00
29045;BME280;16133;49.486;12.176;2024-03-02T09:07:39;96516.63;;;10.25;100.00
29045;BME280;16133;49.486;12.176;2024-03-02T09:10:05;96513.25;;;10.03;100.00
29045;BME280;16133;49.486;12.176;2024-03-02T09:12:31;96521.13;;;9.83;100.00
29045;BME280;16133;49.486;12.176;2024-03-02T09:14:56;96524.16;;;9.80;100.00
29045;BME280;16133;49.486;12.176;2024-03-02T09:17:22;96515.00;;;9.83;100.00
29045;BME280;16133;49.486;12.176;2024-03-02T09:19:48;96515.97;;;9.75;100.00
29045;BME280;16133;49.486;12.176;2024-03-02T09:22:13;96526.41;;;9.83;100.00
29045;BME280;16133;49.486;12.176;2024-03-02T09:24:38;96532.53;;;9.84;100.00
29045;BME280;16133;49.486;12.176;2024-03-02T09:27:04;96531.06;;;9.81;100.00
29045;BME280;16133;49.486;12.176;2024-03-02T09:29:30;96524.34;;;9.79;100.00
29045;BME280;16133;49.486;12.176;2024-03-02T09:31:56;96532.94;;;9.81;100.00
29045;BME280;16133;49.486;12.176;2024-03-02T09:34:21;96527.84;;;9.86;100.00
29045;BME280;16133;49.486;12.176;2024-03-02T09:36:50;96532.38;;;9.92;100.00
29045;BME280;16133;49.486;12.176;2024-03-02T09:39:16;96526.91;;;10.00;100.00
29045;BME280;16133;49.486;12.176;2024-03-02T09:41:43;96530.41;;;10.14;99.90
29045;BME280;16133;49.486;12.176;2024-03-02T09:44:09;96527.03;;;10.26;100.00
29045;BME280;16133;49.486;12.176;2024-03-02T09:46:34;96537.66;;;10.39;99.20
29045;BME280;16133;49.486;12.176;2024-03-02T09:49:01;96535.84;;;10.40;98.12
29045;BME280;16133;49.486;12.176;2024-03-02T09:51:27;96537.25;;;10.36;97.58
29045;BME280;16133;49.486;12.176;2024-03-02T09:53:54;96536.25;;;10.37;97.68
29045;BME280;16133;49.486;12.176;2024-03-02T09:56:21;96538.09;;;10.43;97.82
29045;BME280;16133;49.486;12.176;2024-03-02T09:58:47;96544.44;;;10.42;97.95
29045;BME280;16133;49.486;12.176;2024-03-02T10:01:12;96543.78;;;10.40;97.29
29045;BME280;16133;49.486;12.176;2024-03-02T10:03:38;96537.25;;;10.36;97.21
29045;BME280;16133;49.486;12.176;2024-03-02T10:06:20;96528.69;;;10.34;97.32
29045;BME280;16133;49.486;12.176;2024-03-02T10:08:46;96537.91;;;10.44;96.72
29045;BME280;16133;49.486;12.176;2024-03-02T10:11:26;96531.63;;;10.65;96.83
29045;BME280;16133;49.486;12.176;2024-03-02T10:14:12;96527.38;;;10.90;96.64
29045;BME280;16133;49.486;12.176;2024-03-02T10:16:43;96529.63;;;11.07;94.81
29045;BME280;16133;49.486;12.176;2024-03-02T10:19:22;96523.09;;;11.22;93.08
29045;BME280;16133;49.486;12.176;2024-03-02T10:21:48;96527.16;;;11.25;91.23
29045;BME280;16133;49.486;12.176;2024-03-02T10:24:21;96521.03;;;11.37;91.83
29045;BME280;16133;49.486;12.176;2024-03-02T10:26:47;96516.09;;;11.61;91.72
29045;BME280;16133;49.486;12.176;2024-03-02T10:29:13;96515.28;;;11.80;89.70
29045;BME280;16133;49.486;12.176;2024-03-02T10:31:39;96513.78;;;11.97;87.53
29045;BME280;16133;49.486;12.176;2024-03-02T10:34:06;96511.84;;;12.17;87.13
29045;BME280;16133;49.486;12.176;2024-03-02T10:36:33;96507.28;;;12.31;84.08
29045;BME280;16133;49.486;12.176;2024-03-02T10:39:01;96502.16;;;12.36;83.25
29045;BME280;16133;49.486;12.176;2024-03-02T10:41:27;96501.13;;;12.37;81.56
29045;BME280;16133;49.486;12.176;2024-03-02T10:43:54;96500.69;;;12.40;81.56
29045;BME280;16133;49.486;12.176;2024-03-02T10:46:28;96499.44;;;12.49;82.00
29045;BME280;16133;49.486;12.176;2024-03-02T10:48:54;96489.72;;;12.61;81.87
29045;BME280;16133;49.486;12.176;2024-03-02T10:51:20;96498.00;;;12.78;81.54
29045;BME280;16133;49.486;12.176;2024-03-02T10:53:45;96489.13;;;12.90;80.46
29045;BME280;16133;49.486;12.176;2024-03-02T10:56:16;96488.63;;;13.00;79.30
29045;BME280;16133;49.486;12.176;2024-03-02T10:58:45;96474.16;;;13.21;79.35
29045;BME280;16133;49.486;12.176;2024-03-02T11:01:12;96470.03;;;13.43;78.59
29045;BME280;16133;49.486;12.176;2024-03-02T11:03:40;96472.72;;;13.61;77.65
29045;BME280;16133;49.486;12.176;2024-03-02T11:06:08;96475.81;;;13.76;77.02
29045;BME280;16133;49.486;12.176;2024-03-02T11:08:34;96468.44;;;13.78;75.86
29045;BME280;16133;49.486;12.176;2024-03-02T11:11:07;96484.44;;;13.78;75.44
29045;BME280;16133;49.486;12.176;2024-03-02T11:13:37;96487.19;;;13.72;74.64
29045;BME280;16133;49.486;12.176;2024-03-02T11:16:10;96484.47;;;13.54;75.04
29045;BME280;16133;49.486;12.176;2024-03-02T11:18:39;96485.09;;;13.31;75.14
29045;BME280;16133;49.486;12.176;2024-03-02T11:21:05;96475.84;;;13.09;75.28
29045;BME280;16133;49.486;12.176;2024-03-02T11:23:33;96481.34;;;12.89;76.16
29045;BME280;16133;49.486;12.176;2024-03-02T11:26:17;96473.28;;;12.71;76.89
29045;BME280;16133;49.486;12.176;2024-03-02T11:28:44;96474.88;;;12.47;76.55
29045;BME280;16133;49.486;12.176;2024-03-02T11:31:09;96476.31;;;12.43;77.61
29045;BME280;16133;49.486;12.176;2024-03-02T11:33:34;96478.41;;;12.41;77.54
29045;BME280;16133;49.486;12.176;2024-03-02T11:36:00;96479.22;;;12.35;77.81
29045;BME280;16133;49.486;12.176;2024-03-02T11:38:33;96478.66;;;12.33;77.97
29045;BME280;16133;49.486;12.176;2024-03-02T11:41:16;96459.19;;;12.32;78.20
29045;BME280;16133;49.486;12.176;2024-03-02T11:43:43;96460.03;;;12.33;77.78
29045;BME280;16133;49.486;12.176;2024-03-02T11:46:10;96463.28;;;12.35;78.06
29045;BME280;16133;49.486;12.176;2024-03-02T11:48:36;96456.69;;;12.44;78.81
29045;BME280;16133;49.486;12.176;2024-03-02T11:51:03;96449.78;;;12.61;78.55
29045;BME280;16133;49.486;12.176;2024-03-02T11:53:30;96446.41;;;12.79;77.91
29045;BME280;16133;49.486;12.176;2024-03-02T11:55:58;96438.34;;;12.85;74.79
29045;BME280;16133;49.486;12.176;2024-03-02T11:58:23;96438.53;;;12.90;75.09
29045;BME280;16133;49.486;12.176;2024-03-02T12:00:55;96433.50;;;13.01;75.11
29045;BME280;16133;49.486;12.176;2024-03-02T12:03:23;96436.09;;;13.14;74.67
29045;BME280;16133;49.486;12.176;2024-03-02T12:05:50;96434.94;;;13.28;74.15
29045;BME280;16133;49.486;12.176;2024-03-02T12:08:16;96430.50;;;13.40;73.79
29045;BME280;16133;49.486;12.176;2024-03-02T12:10:41;96425.03;;;13.35;72.77
29045;BME280;16133;49.486;12.176;2024-03-02T12:13:07;96422.72;;;13.20;71.19
29045;BME280;16133;49.486;12.176;2024-03-02T12:15:36;96419.88;;;13.15;72.30
29045;BME280;16133;49.486;12.176;2024-03-02T12:18:02;96430.91;;;13.19;73.04
29045;BME280;16133;49.486;12.176;2024-03-02T12:20:29;96425.91;;;13.11;73.42
29045;BME280;16133;49.486;12.176;2024-03-02T12:22:55;96423.03;;;13.06;73.07
29045;BME280;16133;49.486;12.176;2024-03-02T12:25:23;96423.03;;;13.06;72.56
29045;BME280;16133;49.486;12.176;2024-03-02T12:27:53;96420.34;;;13.12;73.11
29045;BME280;16133;49.486;12.176;2024-03-02T12:30:20;96412.59;;;13.29;73.50
29045;BME280;16133;49.486;12.176;2024-03-02T12:32:47;96413.34;;;13.54;72.62
29045;BME280;16133;49.486;12.176;2024-03-02T12:35:13;96406.50;;;13.76;70.95
29045;BME280;16133;49.486;12.176;2024-03-02T12:37:49;96397.69;;;13.94;70.14
29045;BME280;16133;49.486;12.176;2024-03-02T12:40:17;96395.19;;;14.11;70.04
29045;BME280;16133;49.486;12.176;2024-03-02T12:42:44;96385.31;;;14.29;69.91
29045;BME280;16133;49.486;12.176;2024-03-02T12:45:10;96387.09;;;14.47;68.66
29045;BME280;16133;49.486;12.176;2024-03-02T12:47:36;96387.81;;;14.54;68.45
29045;BME280;16133;49.486;12.176;2024-03-02T12:50:03;96382.69;;;14.53;68.62